Time;durP1;ratioP1;P1;durP2;ratioP2;P2;SDS_P1;SDS_P2;PMS_P1;PMS_P2;Temp;Humidity;BMP_temperature;BMP_pressure;BME280_temperature;BME280_humidity;BME280_pressure;Samples;Min_cycle;Max_cycle;Signal;HPM_P1;HPM_P2
2022/01/13 00:02:13;;;;;;;35.85;23.35;;;;;;;;;;5095862;28;20418;-65
2022/01/13 00:04:39;;;;;;;37.97;21.67;;;;;;;;;;5095654;28;20225;-64
2022/01/13 00:07:05;;;;;;;36.85;23.40;;;;;;;;;;5095628;28;21065;-65
2022/01/13 00:09:31;;;;;;;37.33;22.27;;;;;;;;;;5095964;28;20174;-66
2022/01/13 00:11:58;;;;;;;33.35;21.80;;;;;;;;;;5094518;28;20171;-66
2022/01/13 00:14:38;;;;;;;36.28;22.95;;;;;;;;;;5095537;28;20652;-65
2022/01/13 00:17:22;;;;;;;36.05;22.17;;;;;;;;;;5095234;28;20227;-66
2022/01/13 00:19:56;;;;;;;37.50;22.67;;;;;;;;;;5095662;28;20175;-66
2022/01/13 00:25:00;;;;;;;35.80;22.20;;;;;;;;;;5095245;28;20552;-67
2022/01/13 00:27:29;;;;;;;41.45;22.40;;;;;;;;;;5095171;28;20203;-67
2022/01/13 00:29:57;;;;;;;34.97;21.23;;;;;;;;;;5095225;28;20183;-65
2022/01/13 00:32:27;;;;;;;37.03;21.67;;;;;;;;;;5095244;28;20635;-67
2022/01/13 00:34:53;;;;;;;34.17;20.98;;;;;;;;;;5095314;28;20220;-65
2022/01/13 00:37:19;;;;;;;32.50;20.90;;;;;;;;;;5095072;28;20167;-66
2022/01/13 00:39:45;;;;;;;34.57;20.70;;;;;;;;;;5093822;28;20187;-66
2022/01/13 00:42:11;;;;;;;35.17;22.42;;;;;;;;;;5095079;28;20873;-66
2022/01/13 00:44:38;;;;;;;39.60;20.50;;;;;;;;;;5094995;28;20178;-67
2022/01/13 00:47:07;;;;;;;35.10;20.50;;;;;;;;;;5095208;28;20471;-67
2022/01/13 00:49:33;;;;;;;35.88;21.50;;;;;;;;;;5095270;28;20623;-67
2022/01/13 00:51:59;;;;;;;36.00;20.85;;;;;;;;;;5095099;28;20258;-67
2022/01/13 00:54:25;;;;;;;34.30;21.63;;;;;;;;;;5094885;28;20212;-65
2022/01/13 00:56:51;;;;;;;34.92;21.58;;;;;;;;;;5094993;28;20167;-63
2022/01/13 00:59:18;;;;;;;46.90;21.70;;;;;;;;;;5094735;28;20525;-65
2022/01/13 01:01:46;;;;;;;38.95;23.48;;;;;;;;;;5094709;28;20618;-65
2022/01/13 01:04:12;;;;;;;36.88;22.58;;;;;;;;;;5094706;28;20189;-65
2022/01/13 01:06:38;;;;;;;32.80;21.65;;;;;;;;;;5094194;28;20207;-64
2022/01/13 01:09:05;;;;;;;36.38;21.77;;;;;;;;;;5094494;28;20267;-67
2022/01/13 01:11:32;;;;;;;36.38;22.73;;;;;;;;;;5094701;28;20156;-67
2022/01/13 01:13:59;;;;;;;37.67;22.45;;;;;;;;;;5094583;28;20163;-66
2022/01/13 01:16:26;;;;;;;33.20;21.23;;;;;;;;;;5094329;28;20248;-66
2022/01/13 01:19:00;;;;;;;30.23;20.48;;;;;;;;;;5094489;28;20173;-67
2022/01/13 01:29:21;;;;;;;38.70;22.33;;;;;;;;;;5094521;28;20170;-64
2022/01/13 01:31:52;;;;;;;36.58;21.90;;;;;;;;;;5094452;28;20162;-64
2022/01/13 01:35:03;;;;;;;33.67;22.02;;;;;;;;;;5094581;28;20171;-66
2022/01/13 01:37:16;;;;;;;32.17;24.33;;;;;;;;;;5087512;28;20405;-67
2022/01/13 01:39:42;;;;;;;34.38;22.23;;;;;;;;;;5093026;28;20482;-66
2022/01/13 01:42:09;;;;;;;34.85;22.35;;;;;;;;;;5094292;28;20674;-67
2022/01/13 01:44:39;;;;;;;30.08;19.30;;;;;;;;;;5094044;28;20254;-66
2022/01/13 01:47:10;;;;;;;29.90;19.88;;;;;;;;;;5094081;28;20215;-67
2022/01/13 01:49:40;;;;;;;32.72;19.88;;;;;;;;;;5094097;28;20155;-66
2022/01/13 01:52:07;;;;;;;28.52;19.95;;;;;;;;;;5094288;28;20171;-67
2022/01/13 01:54:33;;;;;;;30.50;19.02;;;;;;;;;;5092759;28;20609;-67
2022/01/13 01:57:00;;;;;;;27.90;18.52;;;;;;;;;;5094047;28;20645;-67
2022/01/13 01:59:30;;;;;;;33.55;20.20;;;;;;;;;;5093895;28;20622;-67
2022/01/13 02:01:56;;;;;;;32.10;19.30;;;;;;;;;;5093778;28;20251;-68
2022/01/13 02:04:25;;;;;;;31.92;19.17;;;;;;;;;;5093949;28;20532;-67
2022/01/13 02:06:52;;;;;;;30.80;19.58;;;;;;;;;;5093542;28;20217;-67
2022/01/13 02:09:19;;;;;;;36.83;19.35;;;;;;;;;;5093668;28;20170;-68
2022/01/13 02:11:49;;;;;;;25.75;17.85;;;;;;;;;;5093654;28;20163;-67
2022/01/13 02:16:53;;;;;;;28.77;18.55;;;;;;;;;;5093543;28;20219;-67
2022/01/13 02:19:20;;;;;;;31.40;18.30;;;;;;;;;;5094755;28;20175;-66
2022/01/13 02:21:46;;;;;;;27.33;19.08;;;;;;;;;;5097841;28;20939;-67
2022/01/13 02:24:12;;;;;;;27.73;18.17;;;;;;;;;;5096501;28;20185;-67
2022/01/13 02:26:38;;;;;;;24.40;18.07;;;;;;;;;;5097689;28;20562;-67
2022/01/13 02:29:04;;;;;;;25.80;18.20;;;;;;;;;;5097681;28;20442;-67
2022/01/13 02:31:30;;;;;;;30.75;18.20;;;;;;;;;;5097625;28;20254;-68
2022/01/13 02:33:56;;;;;;;27.17;18.88;;;;;;;;;;5097622;28;20159;-67
2022/01/13 02:36:23;;;;;;;28.67;18.90;;;;;;;;;;5097503;28;20511;-68
2022/01/13 02:38:49;;;;;;;28.58;18.70;;;;;;;;;;5097467;28;20169;-68
2022/01/13 02:41:15;;;;;;;28.42;18.35;;;;;;;;;;5097444;28;20171;-65
2022/01/13 02:43:43;;;;;;;28.35;18.25;;;;;;;;;;5097408;28;20238;-64
2022/01/13 02:48:59;;;;;;;33.33;20.40;;;;;;;;;;5097532;28;20288;-65
2022/01/13 02:51:25;;;;;;;34.28;20.42;;;;;;;;;;5097209;28;20591;-65
2022/01/13 02:53:51;;;;;;;33.58;20.23;;;;;;;;;;5097114;28;20175;-65
2022/01/13 02:56:17;;;;;;;40.70;21.27;;;;;;;;;;5097093;28;20634;-65
2022/01/13 02:58:43;;;;;;;34.30;20.90;;;;;;;;;;5097112;28;20178;-65
2022/01/13 03:01:09;;;;;;;40.75;21.02;;;;;;;;;;5097262;28;20400;-65
2022/01/13 03:03:36;;;;;;;37.27;20.40;;;;;;;;;;5097035;28;20179;-66
2022/01/13 03:06:06;;;;;;;34.80;20.17;;;;;;;;;;5096811;28;20951;-66
2022/01/13 03:08:32;;;;;;;29.05;18.90;;;;;;;;;;5097186;28;20171;-66
2022/01/13 03:10:58;;;;;;;24.83;16.93;;;;;;;;;;5097130;28;20174;-66
2022/01/13 03:13:27;;;;;;;28.48;19.02;;;;;;;;;;5097081;28;20496;-66
2022/01/13 03:15:53;;;;;;;26.92;17.23;;;;;;;;;;5096522;28;20649;-66
2022/01/13 03:18:19;;;;;;;27.60;16.90;;;;;;;;;;5096974;28;20163;-66
2022/01/13 03:20:45;;;;;;;30.30;18.10;;;;;;;;;;5096943;28;20810;-66
2022/01/13 03:23:16;;;;;;;27.93;16.43;;;;;;;;;;5096645;28;20202;-66
2022/01/13 03:25:44;;;;;;;31.70;18.17;;;;;;;;;;5096492;28;20453;-66
2022/01/13 03:28:15;;;;;;;31.85;19.77;;;;;;;;;;5096348;28;20622;-66
2022/01/13 03:30:42;;;;;;;24.73;17.17;;;;;;;;;;5095892;28;20152;-66
2022/01/13 03:33:08;;;;;;;26.23;18.02;;;;;;;;;;5096446;28;20236;-66
2022/01/13 03:35:35;;;;;;;31.05;18.58;;;;;;;;;;5096270;28;20703;-66
2022/01/13 03:38:01;;;;;;;23.83;17.58;;;;;;;;;;5096607;28;20179;-66
2022/01/13 03:40:27;;;;;;;24.03;17.27;;;;;;;;;;5096257;28;20529;-66
2022/01/13 03:42:54;;;;;;;25.15;17.08;;;;;;;;;;5096168;28;20397;-66
2022/01/13 03:45:23;;;;;;;25.17;17.13;;;;;;;;;;5096537;28;20171;-66
2022/01/13 03:47:49;;;;;;;28.90;18.05;;;;;;;;;;5096497;28;20183;-66
2022/01/13 03:50:15;;;;;;;27.13;18.13;;;;;;;;;;5096108;28;20178;-66
2022/01/13 03:53:04;;;;;;;27.35;18.00;;;;;;;;;;5096301;28;20470;-66
2022/01/13 03:55:36;;;;;;;27.70;16.63;;;;;;;;;;5095926;28;20220;-66
2022/01/13 03:58:21;;;;;;;28.92;17.30;;;;;;;;;;5096230;28;20513;-65
2022/01/13 04:00:53;;;;;;;24.83;17.15;;;;;;;;;;5095861;28;20250;-67
2022/01/13 04:03:18;;;;;;;26.30;16.98;;;;;;;;;;5095863;28;20171;-67
2022/01/13 04:06:03;;;;;;;25.00;17.10;;;;;;;;;;5095753;28;20562;-66
2022/01/13 04:08:30;;;;;;;30.05;18.33;;;;;;;;;;5095773;28;20401;-66
2022/01/13 04:11:05;;;;;;;29.35;17.23;;;;;;;;;;5095754;28;20250;-66
2022/01/13 04:16:14;;;;;;;26.45;17.50;;;;;;;;;;5095715;28;20229;-66
2022/01/13 04:18:40;;;;;;;31.15;17.48;;;;;;;;;;5095619;28;20740;-65
2022/01/13 04:21:06;;;;;;;25.35;16.98;;;;;;;;;;5095566;28;20167;-65
2022/01/13 04:23:32;;;;;;;26.48;17.15;;;;;;;;;;5095457;28;20167;-65
2022/01/13 04:25:59;;;;;;;26.35;16.60;;;;;;;;;;5095575;28;20206;-64
2022/01/13 04:28:29;;;;;;;26.73;16.85;;;;;;;;;;5095577;28;20527;-64
2022/01/13 04:31:01;;;;;;;23.77;16.05;;;;;;;;;;5095307;28;20159;-65
2022/01/13 04:33:33;;;;;;;26.08;16.80;;;;;;;;;;5095470;28;20187;-65
2022/01/13 04:35:59;;;;;;;25.50;17.05;;;;;;;;;;5095080;28;20175;-65
2022/01/13 04:38:25;;;;;;;31.15;18.30;;;;;;;;;;5095115;28;20166;-64
2022/01/13 04:40:56;;;;;;;28.50;16.52;;;;;;;;;;5095144;28;20171;-65
2022/01/13 04:43:23;;;;;;;24.42;16.67;;;;;;;;;;5092740;28;20258;-65
2022/01/13 04:45:49;;;;;;;22.58;16.05;;;;;;;;;;5095014;28;20210;-64
2022/01/13 04:48:15;;;;;;;29.52;16.42;;;;;;;;;;5094997;28;20615;-65
2022/01/13 04:50:42;;;;;;;24.90;16.83;;;;;;;;;;5094908;28;20175;-65
2022/01/13 04:53:08;;;;;;;26.38;16.42;;;;;;;;;;5094910;28;20164;-65
2022/01/13 04:55:36;;;;;;;25.83;17.27;;;;;;;;;;5095148;28;20266;-64
2022/01/13 04:58:03;;;;;;;27.10;17.00;;;;;;;;;;5094852;28;20242;-65
2022/01/13 05:00:30;;;;;;;23.63;16.20;;;;;;;;;;5093514;28;20171;-65
2022/01/13 05:02:56;;;;;;;31.15;17.13;;;;;;;;;;5094723;28;20652;-66
2022/01/13 05:05:22;;;;;;;26.13;16.80;;;;;;;;;;5094737;28;20232;-66
2022/01/13 05:07:48;;;;;;;28.05;16.63;;;;;;;;;;5094659;28;20199;-66
2022/01/13 05:10:14;;;;;;;23.85;16.50;;;;;;;;;;5094664;28;20619;-66
2022/01/13 05:12:45;;;;;;;27.70;16.45;;;;;;;;;;5094605;28;20537;-66
2022/01/13 05:15:23;;;;;;;24.75;17.08;;;;;;;;;;5093272;28;20171;-66
2022/01/13 05:20:28;;;;;;;25.77;16.50;;;;;;;;;;5094677;28;20639;-66
2022/01/13 05:22:55;;;;;;;26.20;16.85;;;;;;;;;;5094451;28;20151;-67
2022/01/13 05:25:21;;;;;;;24.25;16.75;;;;;;;;;;5094346;28;20172;-65
2022/01/13 05:27:47;;;;;;;26.65;16.95;;;;;;;;;;5094083;28;20202;-66
2022/01/13 05:30:15;;;;;;;25.10;17.73;;;;;;;;;;5094191;28;20252;-66
2022/01/13 05:32:41;;;;;;;27.05;17.25;;;;;;;;;;5094272;28;20610;-66
2022/01/13 05:35:07;;;;;;;25.27;17.25;;;;;;;;;;5094384;28;20270;-66
2022/01/13 05:37:33;;;;;;;25.00;15.95;;;;;;;;;;5094487;28;20586;-66
2022/01/13 05:39:59;;;;;;;24.15;16.85;;;;;;;;;;5094071;28;20170;-66
2022/01/13 05:42:26;;;;;;;29.38;17.17;;;;;;;;;;5094235;28;20475;-66
2022/01/13 05:44:52;;;;;;;31.35;16.65;;;;;;;;;;5093964;28;20178;-65
2022/01/13 05:47:18;;;;;;;29.08;16.25;;;;;;;;;;5093832;28;20207;-65
2022/01/13 05:49:44;;;;;;;30.67;18.20;;;;;;;;;;5093914;28;20316;-65
2022/01/13 05:52:11;;;;;;;34.90;19.70;;;;;;;;;;5093804;28;20406;-65
2022/01/13 05:54:37;;;;;;;33.33;19.45;;;;;;;;;;5093582;28;20171;-64
2022/01/13 05:57:04;;;;;;;52.28;27.05;;;;;;;;;;5093929;28;20161;-65
2022/01/13 05:59:33;;;;;;;45.67;25.40;;;;;;;;;;5093774;28;20634;-65
2022/01/13 06:01:59;;;;;;;38.13;21.35;;;;;;;;;;5093796;28;20539;-66
2022/01/13 06:04:25;;;;;;;29.33;19.20;;;;;;;;;;5093766;28;20190;-66
2022/01/13 06:06:51;;;;;;;37.60;21.77;;;;;;;;;;5093649;28;20203;-66
2022/01/13 06:09:17;;;;;;;29.10;17.15;;;;;;;;;;5093695;28;20401;-66
2022/01/13 06:11:52;;;;;;;23.85;14.60;;;;;;;;;;5093954;28;20258;-65
2022/01/13 06:14:18;;;;;;;25.38;15.82;;;;;;;;;;5093749;28;20159;-66
2022/01/13 06:16:44;;;;;;;26.88;17.50;;;;;;;;;;5093435;28;20239;-65
2022/01/13 06:19:10;;;;;;;29.43;17.10;;;;;;;;;;5093487;28;20237;-66
2022/01/13 06:21:36;;;;;;;27.37;16.90;;;;;;;;;;5093477;28;20409;-66
2022/01/13 06:24:02;;;;;;;31.00;19.35;;;;;;;;;;5093345;28;20760;-66
2022/01/13 06:26:28;;;;;;;29.15;20.20;;;;;;;;;;5093392;28;20206;-65
2022/01/13 06:28:54;;;;;;;42.37;23.23;;;;;;;;;;5093510;28;20167;-66
2022/01/13 06:31:20;;;;;;;58.30;33.53;;;;;;;;;;5093267;28;20401;-66
2022/01/13 06:33:46;;;;;;;48.83;28.20;;;;;;;;;;5093379;28;20171;-66
2022/01/13 06:36:12;;;;;;;47.83;25.53;;;;;;;;;;5093263;28;20458;-67
2022/01/13 06:38:38;;;;;;;52.85;27.40;;;;;;;;;;5093348;28;20879;-67
2022/01/13 06:41:04;;;;;;;45.40;24.70;;;;;;;;;;5093466;28;20247;-66
2022/01/13 06:43:33;;;;;;;42.70;22.73;;;;;;;;;;5093609;28;20492;-66
2022/01/13 06:45:59;;;;;;;33.95;22.50;;;;;;;;;;5093491;28;20207;-67
2022/01/13 06:48:25;;;;;;;40.40;23.90;;;;;;;;;;5093361;28;20267;-67
2022/01/13 06:50:51;;;;;;;42.20;22.77;;;;;;;;;;5093375;28;20510;-66
2022/01/13 06:53:20;;;;;;;36.28;23.02;;;;;;;;;;5093299;28;20402;-66
2022/01/13 06:55:46;;;;;;;40.22;22.38;;;;;;;;;;5093496;28;20220;-66
2022/01/13 06:58:12;;;;;;;41.17;22.98;;;;;;;;;;5093188;28;20167;-67
2022/01/13 07:00:38;;;;;;;71.87;31.97;;;;;;;;;;5093097;28;20236;-66
2022/01/13 07:03:04;;;;;;;77.22;34.75;;;;;;;;;;5093072;28;20803;-67
2022/01/13 07:05:30;;;;;;;73.05;32.13;;;;;;;;;;5092649;28;20224;-66
2022/01/13 07:07:57;;;;;;;75.30;34.45;;;;;;;;;;5096915;28;20163;-66
2022/01/13 07:10:23;;;;;;;76.10;34.03;;;;;;;;;;5096868;28;20625;-66
2022/01/13 07:12:49;;;;;;;93.57;39.83;;;;;;;;;;5096916;28;20167;-66
2022/01/13 07:15:16;;;;;;;69.93;32.90;;;;;;;;;;5096821;28;20167;-66
2022/01/13 07:17:42;;;;;;;57.80;28.23;;;;;;;;;;5096575;28;20346;-67
2022/01/13 07:20:09;;;;;;;47.50;26.17;;;;;;;;;;5096872;28;20171;-68
2022/01/13 07:22:37;;;;;;;40.95;23.25;;;;;;;;;;5096723;28;20167;-68
2022/01/13 07:25:03;;;;;;;44.10;23.17;;;;;;;;;;5096675;28;20174;-69
2022/01/13 07:27:29;;;;;;;44.35;23.23;;;;;;;;;;5096620;28;20214;-67
2022/01/13 07:29:55;;;;;;;44.13;22.88;;;;;;;;;;5096827;28;20173;-67
2022/01/13 07:32:21;;;;;;;46.88;22.20;;;;;;;;;;5096819;28;20542;-65
2022/01/13 07:34:47;;;;;;;46.08;24.23;;;;;;;;;;5096779;28;20580;-66
2022/01/13 07:37:13;;;;;;;46.00;24.58;;;;;;;;;;5096421;28;20178;-66
2022/01/13 07:39:39;;;;;;;35.80;20.50;;;;;;;;;;5096332;28;20168;-66
2022/01/13 07:42:05;;;;;;;28.00;17.95;;;;;;;;;;5096344;28;20399;-66
2022/01/13 07:44:31;;;;;;;28.73;16.42;;;;;;;;;;5096557;28;20175;-66
2022/01/13 07:46:59;;;;;;;22.48;15.75;;;;;;;;;;5096210;28;20206;-67
2022/01/13 07:49:26;;;;;;;26.55;14.80;;;;;;;;;;5096143;28;20614;-66
2022/01/13 07:51:52;;;;;;;23.83;14.90;;;;;;;;;;5096054;28;20596;-66
2022/01/13 07:54:18;;;;;;;27.90;16.13;;;;;;;;;;5096127;28;20202;-66
2022/01/13 07:56:44;;;;;;;32.50;20.90;;;;;;;;;;5096011;28;20199;-68
2022/01/13 07:59:09;;;;;;;32.63;20.80;;;;;;;;;;5095964;28;20405;-67
2022/01/13 08:01:35;;;;;;;20.85;15.20;;;;;;;;;;5095956;28;20405;-66
2022/01/13 08:04:01;;;;;;;23.53;16.40;;;;;;;;;;5095971;28;20195;-67
2022/01/13 08:06:27;;;;;;;29.00;16.80;;;;;;;;;;5095840;28;20540;-69
2022/01/13 08:08:53;;;;;;;23.15;16.38;;;;;;;;;;5095771;28;20394;-67
2022/01/13 08:11:19;;;;;;;24.47;16.03;;;;;;;;;;5095820;28;20163;-68
2022/01/13 08:13:46;;;;;;;29.48;17.55;;;;;;;;;;5095631;28;20398;-67
2022/01/13 08:16:12;;;;;;;24.33;18.05;;;;;;;;;;5094158;28;20241;-68
2022/01/13 08:21:24;;;;;;;27.73;18.27;;;;;;;;;;5095911;28;20178;-68
2022/01/13 08:23:50;;;;;;;27.55;17.75;;;;;;;;;;5095474;28;20220;-67
2022/01/13 08:26:17;;;;;;;29.23;18.77;;;;;;;;;;5095320;28;20677;-68
2022/01/13 08:28:43;;;;;;;29.20;19.00;;;;;;;;;;5094124;28;20667;-67
2022/01/13 08:31:09;;;;;;;63.80;26.27;;;;;;;;;;5095316;28;20205;-65
2022/01/13 08:33:35;;;;;;;84.18;32.00;;;;;;;;;;5095349;28;20896;-67
2022/01/13 08:36:01;;;;;;;79.78;30.73;;;;;;;;;;5095244;28;20171;-66
2022/01/13 08:38:27;;;;;;;118.53;43.30;;;;;;;;;;5095550;28;20174;-69
2022/01/13 08:40:59;;;;;;;118.03;40.80;;;;;;;;;;5095543;28;20269;-67
2022/01/13 08:43:25;;;;;;;116.40;40.25;;;;;;;;;;5095324;28;20284;-69
2022/01/13 08:45:51;;;;;;;95.80;38.17;;;;;;;;;;5095009;28;20277;-68
2022/01/13 08:48:18;;;;;;;107.97;40.23;;;;;;;;;;5095234;28;20258;-68
2022/01/13 08:50:46;;;;;;;93.32;39.40;;;;;;;;;;5094898;28;20408;-69
2022/01/13 08:53:13;;;;;;;97.22;37.28;;;;;;;;;;5094895;28;20163;-69
2022/01/13 08:55:39;;;;;;;95.93;36.58;;;;;;;;;;5094862;28;20167;-68
2022/01/13 08:58:05;;;;;;;79.75;37.58;;;;;;;;;;5094658;28;20675;-68
2022/01/13 09:00:32;;;;;;;70.47;37.75;;;;;;;;;;5094703;28;20212;-67
2022/01/13 09:02:58;;;;;;;61.65;33.65;;;;;;;;;;5094956;28;20171;-68
2022/01/13 09:05:24;;;;;;;90.80;45.35;;;;;;;;;;5093416;28;20638;-66
2022/01/13 09:07:50;;;;;;;66.07;34.43;;;;;;;;;;5094482;28;20203;-66
2022/01/13 09:10:17;;;;;;;50.27;27.17;;;;;;;;;;5094565;28;20364;-66
2022/01/13 09:12:43;;;;;;;47.55;24.70;;;;;;;;;;5094734;28;20436;-66
2022/01/13 09:15:16;;;;;;;46.42;23.20;;;;;;;;;;5094716;28;20258;-66
2022/01/13 09:17:43;;;;;;;35.75;19.23;;;;;;;;;;5094232;28;20222;-67
2022/01/13 09:20:13;;;;;;;28.08;17.33;;;;;;;;;;5094592;28;20171;-69
2022/01/13 09:22:39;;;;;;;26.63;17.10;;;;;;;;;;5094399;28;20603;-69
2022/01/13 09:25:06;;;;;;;21.33;16.00;;;;;;;;;;5094357;28;20159;-68
2022/01/13 09:27:33;;;;;;;21.90;15.60;;;;;;;;;;5094104;28;20213;-70
2022/01/13 09:29:59;;;;;;;21.73;15.98;;;;;;;;;;5093570;28;20379;-69
2022/01/13 09:32:25;;;;;;;23.90;16.45;;;;;;;;;;5093985;28;20167;-69
2022/01/13 09:34:51;;;;;;;34.30;25.97;;;;;;;;;;5094002;28;20247;-68
2022/01/13 09:37:17;;;;;;;25.70;18.87;;;;;;;;;;5092753;28;20441;-69
2022/01/13 09:39:43;;;;;;;25.20;17.90;;;;;;;;;;5093944;28;20849;-69
2022/01/13 09:42:10;;;;;;;21.73;16.90;;;;;;;;;;5093814;28;20406;-69
2022/01/13 09:44:36;;;;;;;19.47;15.87;;;;;;;;;;5093727;28;20433;-69
2022/01/13 09:47:04;;;;;;;22.80;17.53;;;;;;;;;;5094047;28;20522;-72
2022/01/13 09:49:30;;;;;;;22.53;15.63;;;;;;;;;;5093753;28;20448;-69
2022/01/13 09:51:56;;;;;;;16.90;14.10;;;;;;;;;;5093723;28;20422;-68
2022/01/13 09:54:22;;;;;;;17.87;15.07;;;;;;;;;;5093857;28;20487;-68
2022/01/13 09:56:48;;;;;;;22.30;17.30;;;;;;;;;;5093741;28;20397;-69
2022/01/13 09:59:14;;;;;;;25.67;20.60;;;;;;;;;;5093960;28;20805;-68
2022/01/13 10:01:40;;;;;;;24.33;21.33;;;;;;;;;;5093596;28;20492;-67
2022/01/13 10:04:06;;;;;;;21.53;19.10;;;;;;;;;;5093667;28;20424;-68
2022/01/13 10:06:40;;;;;;;21.07;18.80;;;;;;;;;;5093582;28;20460;-68
2022/01/13 10:09:06;;;;;;;32.17;19.80;;;;;;;;;;5093542;28;20461;-68
2022/01/13 10:11:36;;;;;;;23.60;19.70;;;;;;;;;;5093721;28;20808;-67
2022/01/13 10:14:05;;;;;;;22.67;19.90;;;;;;;;;;5093529;28;20389;-68
2022/01/13 10:16:32;;;;;;;25.27;21.30;;;;;;;;;;5093255;28;20875;-69
2022/01/13 10:18:58;;;;;;;29.00;22.13;;;;;;;;;;5093453;28;20401;-68
2022/01/13 10:21:24;;;;;;;29.63;22.87;;;;;;;;;;5093747;28;20749;-69
2022/01/13 10:24:00;;;;;;;30.07;24.93;;;;;;;;;;5093448;28;20976;-68
2022/01/13 10:26:26;;;;;;;38.87;26.77;;;;;;;;;;5093165;28;20465;-69
2022/01/13 10:28:52;;;;;;;32.53;26.87;;;;;;;;;;5092111;28;20424;-68
2022/01/13 10:31:18;;;;;;;33.23;26.87;;;;;;;;;;5093369;28;20411;-69
2022/01/13 10:33:44;;;;;;;37.37;28.43;;;;;;;;;;5093396;28;20437;-69
2022/01/13 10:36:11;;;;;;;38.50;27.80;;;;;;;;;;5093202;28;20840;-69
2022/01/13 10:39:10;;;;;;;31.53;25.73;;;;;;;;;;5093207;28;20387;-70
2022/01/13 10:41:49;;;;;;;31.80;26.27;;;;;;;;;;5062583;28;20436;-69
2022/01/13 10:44:21;;;;;;;35.60;26.87;;;;;;;;;;5097393;28;20903;-67
2022/01/13 10:46:57;;;;;;;41.60;25.77;;;;;;;;;;5097496;28;20468;-67
2022/01/13 10:49:42;;;;;;;35.50;25.20;;;;;;;;;;5096111;28;20406;-67
2022/01/13 10:52:23;;;;;;;34.13;23.20;;;;;;;;;;5097493;28;20873;-66
2022/01/13 10:54:51;;;;;;;28.20;22.90;;;;;;;;;;5097242;28;20500;-65
2022/01/13 10:57:18;;;;;;;27.10;22.20;;;;;;;;;;5095931;28;20848;-67
2022/01/13 10:59:44;;;;;;;24.73;22.10;;;;;;;;;;5097176;28;20403;-65
2022/01/13 11:02:11;;;;;;;27.10;22.67;;;;;;;;;;5097104;28;20819;-65
2022/01/13 11:04:37;;;;;;;36.23;25.30;;;;;;;;;;5097102;28;20393;-66
2022/01/13 11:07:15;;;;;;;31.00;25.10;;;;;;;;;;5097233;28;20477;-67
2022/01/13 11:09:43;;;;;;;26.27;22.33;;;;;;;;;;5096961;28;20868;-68
2022/01/13 11:12:14;;;;;;;29.60;24.80;;;;;;;;;;5096897;28;20388;-66
2022/01/13 11:14:42;;;;;;;33.87;24.67;;;;;;;;;;5096915;28;20753;-67
2022/01/13 11:17:10;;;;;;;31.73;25.50;;;;;;;;;;5096623;28;20997;-66
2022/01/13 11:19:36;;;;;;;27.17;24.27;;;;;;;;;;5097086;28;20405;-66
2022/01/13 11:22:02;;;;;;;29.03;24.93;;;;;;;;;;5096793;28;20393;-67
2022/01/13 11:24:28;;;;;;;30.00;23.60;;;;;;;;;;5096955;28;20500;-66
2022/01/13 11:26:55;;;;;;;32.50;24.50;;;;;;;;;;5096697;28;21070;-66
2022/01/13 11:29:23;;;;;;;29.87;23.00;;;;;;;;;;5096625;28;20394;-66
2022/01/13 11:31:50;;;;;;;30.13;23.40;;;;;;;;;;5096498;28;20896;-66
2022/01/13 11:34:17;;;;;;;42.03;30.50;;;;;;;;;;5096501;28;20884;-67
2022/01/13 11:36:43;;;;;;;33.77;25.70;;;;;;;;;;5096526;28;20466;-66
2022/01/13 11:39:10;;;;;;;30.10;24.53;;;;;;;;;;5096436;28;20407;-66
2022/01/13 11:41:56;;;;;;;39.40;26.70;;;;;;;;;;5096719;28;20442;-68
2022/01/13 11:44:23;;;;;;;36.37;26.97;;;;;;;;;;5096140;28;20412;-67
2022/01/13 11:46:50;;;;;;;39.30;26.57;;;;;;;;;;5096338;28;20508;-64
2022/01/13 11:49:20;;;;;;;40.40;28.43;;;;;;;;;;5096227;28;20364;-67
2022/01/13 11:52:14;;;;;;;38.10;26.97;;;;;;;;;;5095921;28;20397;-67
2022/01/13 11:54:37;;;;;;;38.47;27.67;;;;;;;;;;5095657;28;20432;-67
2022/01/13 11:57:14;;;;;;;38.20;26.13;;;;;;;;;;5096420;28;20412;-67
2022/01/13 11:59:47;;;;;;;40.60;30.97;;;;;;;;;;5096102;28;20906;-67
2022/01/13 12:02:23;;;;;;;43.00;29.37;;;;;;;;;;5095985;28;20538;-67
2022/01/13 12:05:04;;;;;;;49.40;37.70;;;;;;;;;;5095849;28;20404;-67
2022/01/13 12:07:37;;;;;;;41.37;30.77;;;;;;;;;;5095824;28;20533;-67
2022/01/13 12:10:07;;;;;;;38.60;29.73;;;;;;;;;;5095833;28;20476;-67
2022/01/13 12:12:33;;;;;;;38.17;28.87;;;;;;;;;;5095805;28;20496;-65
2022/01/13 12:15:16;;;;;;;40.67;29.23;;;;;;;;;;5095539;28;20397;-67
2022/01/13 12:17:47;;;;;;;38.97;29.67;;;;;;;;;;5095456;28;20525;-67
2022/01/13 12:23:16;;;;;;;35.30;29.33;;;;;;;;;;5095885;28;20441;-67
2022/01/13 12:25:42;;;;;;;35.57;29.80;;;;;;;;;;5095527;28;20488;-67
2022/01/13 12:28:12;;;;;;;38.80;30.17;;;;;;;;;;5095454;28;20868;-67
2022/01/13 12:30:39;;;;;;;38.30;30.80;;;;;;;;;;5095649;28;20408;-67
2022/01/13 12:33:07;;;;;;;36.57;30.23;;;;;;;;;;5095299;28;20817;-66
2022/01/13 12:35:47;;;;;;;46.57;31.73;;;;;;;;;;5095658;28;20403;-67
2022/01/13 12:38:15;;;;;;;45.43;34.23;;;;;;;;;;5095131;28;20898;-67
2022/01/13 12:41:13;;;;;;;42.27;31.30;;;;;;;;;;5095127;28;20770;-66
2022/01/13 12:46:09;;;;;;;46.27;35.40;;;;;;;;;;5095132;28;20469;-66
2022/01/13 12:48:36;;;;;;;47.57;34.17;;;;;;;;;;5094820;28;20412;-66
2022/01/13 12:51:03;;;;;;;54.17;38.40;;;;;;;;;;5094980;28;20405;-66
2022/01/13 12:53:30;;;;;;;58.50;38.93;;;;;;;;;;5094904;28;20771;-65
2022/01/13 12:55:56;;;;;;;48.30;33.80;;;;;;;;;;5095190;28;20802;-66
2022/01/13 12:58:23;;;;;;;51.80;36.27;;;;;;;;;;5093876;28;20424;-64
2022/01/13 13:00:49;;;;;;;57.43;37.97;;;;;;;;;;5094732;28;20901;-67
2022/01/13 13:03:15;;;;;;;53.40;34.87;;;;;;;;;;5094181;28;20409;-66
2022/01/13 13:05:43;;;;;;;50.87;34.10;;;;;;;;;;5094698;28;20423;-65
2022/01/13 13:08:12;;;;;;;50.37;33.93;;;;;;;;;;5094934;28;20803;-65
2022/01/13 13:10:41;;;;;;;52.20;34.87;;;;;;;;;;5094667;28;20389;-67
2022/01/13 13:13:07;;;;;;;50.97;35.00;;;;;;;;;;5094578;28;20526;-64
2022/01/13 13:17:59;;;;;;;48.87;33.97;;;;;;;;;;5094378;28;20469;-65
2022/01/13 13:20:26;;;;;;;42.13;30.73;;;;;;;;;;5094501;28;20466;-66
2022/01/13 13:22:56;;;;;;;46.03;32.97;;;;;;;;;;5094404;28;20497;-66
2022/01/13 13:25:36;;;;;;;44.30;32.80;;;;;;;;;;5094693;28;20393;-66
2022/01/13 13:28:22;;;;;;;41.40;32.07;;;;;;;;;;5094315;28;20460;-67
2022/01/13 13:30:49;;;;;;;52.03;36.30;;;;;;;;;;5094265;28;20404;-68
2022/01/13 13:33:16;;;;;;;48.90;34.67;;;;;;;;;;5094221;28;20486;-67
2022/01/13 13:35:42;;;;;;;44.90;32.77;;;;;;;;;;5094499;28;20401;-66
2022/01/13 13:38:11;;;;;;;48.73;35.03;;;;;;;;;;5094142;28;20496;-68
2022/01/13 13:40:45;;;;;;;49.37;34.63;;;;;;;;;;5094158;28;20919;-68
2022/01/13 13:43:11;;;;;;;45.23;33.30;;;;;;;;;;5094119;28;20478;-67
2022/01/13 13:45:37;;;;;;;47.20;33.27;;;;;;;;;;5093990;28;20759;-66
2022/01/13 13:48:03;;;;;;;48.47;33.80;;;;;;;;;;5093875;28;20959;-67
2022/01/13 13:50:29;;;;;;;46.30;31.87;;;;;;;;;;5093895;28;20484;-66
2022/01/13 13:53:05;;;;;;;58.53;37.03;;;;;;;;;;5093882;28;21039;-67
2022/01/13 13:55:31;;;;;;;53.10;35.20;;;;;;;;;;5093767;28;20910;-66
2022/01/13 13:57:57;;;;;;;50.07;34.90;;;;;;;;;;5093910;28;20397;-66
2022/01/13 14:00:26;;;;;;;50.67;33.17;;;;;;;;;;5093832;28;20458;-66
2022/01/13 14:02:54;;;;;;;48.43;32.83;;;;;;;;;;5093707;28;20877;-67
2022/01/13 14:05:27;;;;;;;47.73;33.63;;;;;;;;;;5093704;28;20401;-67
2022/01/13 14:07:53;;;;;;;49.00;33.33;;;;;;;;;;5093929;28;20472;-65
2022/01/13 14:10:27;;;;;;;53.63;32.43;;;;;;;;;;5093944;28;20408;-66
2022/01/13 14:12:53;;;;;;;44.87;32.60;;;;;;;;;;5093690;28;20439;-66
2022/01/13 14:15:29;;;;;;;51.40;35.70;;;;;;;;;;5093701;28;20439;-67
2022/01/13 14:18:11;;;;;;;50.67;35.30;;;;;;;;;;5093525;28;20628;-65
2022/01/13 14:20:44;;;;;;;52.10;34.37;;;;;;;;;;5093914;28;20488;-66
2022/01/13 14:23:15;;;;;;;52.63;37.47;;;;;;;;;;5093594;28;20455;-67
2022/01/13 14:25:43;;;;;;;57.03;38.90;;;;;;;;;;5093873;28;20397;-67
2022/01/13 14:28:10;;;;;;;57.45;35.78;;;;;;;;;;5093528;28;20452;-67
2022/01/13 14:30:38;;;;;;;59.27;37.47;;;;;;;;;;5093525;28;20167;-66
2022/01/13 14:33:24;;;;;;;52.20;36.15;;;;;;;;;;5093708;28;20477;-69
2022/01/13 14:36:10;;;;;;;57.72;37.45;;;;;;;;;;5093350;28;20178;-67
2022/01/13 14:38:48;;;;;;;53.38;36.40;;;;;;;;;;5093311;28;20183;-65
2022/01/13 14:41:17;;;;;;;48.78;33.72;;;;;;;;;;5093698;28;20524;-68
2022/01/13 14:43:58;;;;;;;48.90;33.10;;;;;;;;;;5093487;28;20268;-66
2022/01/13 14:46:26;;;;;;;52.97;34.38;;;;;;;;;;5093362;28;20431;-65
2022/01/13 14:48:52;;;;;;;54.78;35.00;;;;;;;;;;5093350;28;20171;-69
2022/01/13 14:51:20;;;;;;;67.50;38.37;;;;;;;;;;5093283;28;20159;-70
2022/01/13 14:53:47;;;;;;;70.33;40.23;;;;;;;;;;5093529;28;20407;-70
2022/01/13 14:56:14;;;;;;;71.68;39.85;;;;;;;;;;5093508;28;20477;-66